createdAt,value
2019-05-07T00:02:32.199Z,12.50
2019-05-07T00:05:22.841Z,14.20
2019-05-07T00:08:12.244Z,12.55
2019-05-07T00:11:02.550Z,17.92
2019-05-07T00:13:52.233Z,16.35
2019-05-07T00:20:10.249Z,14.78
2019-05-07T00:22:59.068Z,18.77
2019-05-07T00:25:47.925Z,21.60
2019-05-07T00:28:36.757Z,17.37
2019-05-07T00:31:25.587Z,15.18
2019-05-07T00:40:22.561Z,22.55
2019-05-07T00:52:16.192Z,16.07
2019-05-07T00:55:25.904Z,16.25
2019-05-07T00:58:14.750Z,13.45
2019-05-07T01:04:13.007Z,17.55
2019-05-07T01:07:02.763Z,17.87
2019-05-07T01:09:52.598Z,19.23
2019-05-07T01:12:42.949Z,19.20
2019-05-07T01:15:34.462Z,15.65
2019-05-07T01:18:23.352Z,16.48
2019-05-07T01:21:13.283Z,20.40
2019-05-07T01:24:03.546Z,14.40
2019-05-07T01:26:53.056Z,17.12
2019-05-07T01:29:43.119Z,16.50
2019-05-07T01:32:53.140Z,17.67
2019-05-07T01:36:02.420Z,18.92
2019-05-07T01:38:52.262Z,19.20
2019-05-07T01:41:34.398Z,30.37
2019-05-07T01:44:23.255Z,17.70
2019-05-07T01:47:13.037Z,17.37
2019-05-07T01:50:03.159Z,15.65
2019-05-07T01:52:53.272Z,17.73
2019-05-07T01:55:42.802Z,13.83
2019-05-07T01:58:33.302Z,15.10
2019-05-07T02:01:23.206Z,15.65
2019-05-07T02:04:32.692Z,18.40
2019-05-07T02:07:42.777Z,20.68
2019-05-07T02:13:31.076Z,17.05
2019-05-07T02:16:21.756Z,19.25
2019-05-07T02:19:12.513Z,17.70
2019-05-07T02:22:02.839Z,17.60
2019-05-07T02:24:52.403Z,16.07
2019-05-07T02:27:42.320Z,16.97
2019-05-07T02:30:34.548Z,17.95
2019-05-07T02:33:23.032Z,20.85
2019-05-07T02:36:14.234Z,17.98
2019-05-07T02:39:03.765Z,19.77
2019-05-07T02:41:45.714Z,18.15
2019-05-07T02:53:44.949Z,15.00
2019-05-07T02:56:33.777Z,18.02
2019-05-07T02:59:04.216Z,16.67
2019-05-07T03:01:54.050Z,17.73
2019-05-07T03:04:43.524Z,21.12
2019-05-07T03:07:33.857Z,20.62
2019-05-07T03:10:24.252Z,17.42
2019-05-07T03:13:14.600Z,18.98
2019-05-07T03:16:03.918Z,15.50
2019-05-07T03:18:54.134Z,19.37
2019-05-07T03:22:03.906Z,16.82
2019-05-07T03:25:13.556Z,19.30
2019-05-07T03:28:04.379Z,17.62
2019-05-07T03:31:16.611Z,19.02
2019-05-07T03:34:25.765Z,19.07
2019-05-07T03:40:23.093Z,17.00
2019-05-07T03:43:13.977Z,17.65
2019-05-07T03:46:03.581Z,20.80
2019-05-07T03:48:53.230Z,16.42
2019-05-07T03:51:44.155Z,19.98
2019-05-07T03:54:34.394Z,20.12
2019-05-07T03:57:24.516Z,17.25
2019-05-07T04:03:28.654Z,23.25
2019-05-07T04:06:17.491Z,19.87
2019-05-07T04:09:06.420Z,20.05
2019-05-07T04:11:35.938Z,18.80
2019-05-07T04:14:24.824Z,20.95
2019-05-07T04:17:21.851Z,19.73
2019-05-07T04:23:34.142Z,20.12
2019-05-07T04:26:42.984Z,19.35
2019-05-07T04:29:35.091Z,17.42
2019-05-07T04:35:38.083Z,20.80
2019-05-07T04:38:26.903Z,20.92
2019-05-07T04:41:15.773Z,26.33
2019-05-07T04:47:34.712Z,24.00
2019-05-07T04:50:49.995Z,15.70
2019-05-07T04:53:38.808Z,18.52
2019-05-07T04:56:27.657Z,22.40
2019-05-07T04:59:16.491Z,21.40
2019-05-07T05:02:24.341Z,20.95
2019-05-07T05:08:23.634Z,21.85
2019-05-07T05:11:13.547Z,19.52
2019-05-07T05:14:03.307Z,22.27
2019-05-07T05:16:52.954Z,21.23
2019-05-07T05:19:43.809Z,22.85
2019-05-07T05:22:53.183Z,20.85
2019-05-07T05:28:42.091Z,25.12
2019-05-07T05:31:33.092Z,24.10
2019-05-07T05:34:22.753Z,20.10
2019-05-07T05:37:12.034Z,21.15
2019-05-07T05:40:08.586Z,22.10
2019-05-07T05:43:04.310Z,23.45
2019-05-07T05:48:52.887Z,21.77
2019-05-07T05:52:02.025Z,18.48
2019-05-07T05:58:19.830Z,24.82
2019-05-07T06:01:27.685Z,23.32
2019-05-07T06:04:35.563Z,23.38
2019-05-07T06:07:43.427Z,24.55
2019-05-07T06:13:47.301Z,22.55
2019-05-07T06:16:55.228Z,20.60
2019-05-07T06:28:39.108Z,23.25
2019-05-07T06:31:27.946Z,18.70
2019-05-07T06:34:16.775Z,21.90
2019-05-07T06:37:05.614Z,16.67
2019-05-07T06:39:54.214Z,17.23
2019-05-07T06:42:42.772Z,17.67
2019-05-07T06:45:51.854Z,18.63
2019-05-07T06:48:43.567Z,18.67
2019-05-07T06:51:32.845Z,16.63
2019-05-07T06:54:22.717Z,16.83
2019-05-07T06:57:13.146Z,15.23
2019-05-07T07:03:35.749Z,14.60
2019-05-07T07:09:53.018Z,13.00
2019-05-07T07:12:42.627Z,16.87
2019-05-07T07:15:32.667Z,14.30
2019-05-07T07:18:23.107Z,13.57
2019-05-07T07:21:12.432Z,12.03
2019-05-07T07:24:03.113Z,10.00
2019-05-07T07:26:53.156Z,11.17
2019-05-07T07:30:02.309Z,14.87
2019-05-07T07:35:27.713Z,13.10
2019-05-07T07:38:35.570Z,16.50
2019-05-07T07:41:43.459Z,16.17
2019-05-07T07:44:25.758Z,13.40
2019-05-07T07:47:14.577Z,15.73
2019-05-07T07:53:18.425Z,13.00
2019-05-07T07:56:26.308Z,14.10
2019-05-07T07:59:34.255Z,17.53
2019-05-07T08:05:18.804Z,17.00
2019-05-07T08:08:07.664Z,19.53
2019-05-07T08:10:56.659Z,18.50
2019-05-07T08:13:45.623Z,19.67
2019-05-07T08:16:34.615Z,15.80
2019-05-07T08:19:25.145Z,18.40
2019-05-07T08:22:14.116Z,18.30
2019-05-07T08:28:02.984Z,13.63
2019-05-07T08:31:12.044Z,17.27
2019-05-07T08:37:01.852Z,16.70
2019-05-07T08:39:52.105Z,17.37
2019-05-07T08:42:42.244Z,16.93
2019-05-07T08:45:52.358Z,15.47
2019-05-07T08:51:36.440Z,14.27
2019-05-07T08:54:25.335Z,14.90
2019-05-07T08:57:14.252Z,18.13
2019-05-07T09:12:29.317Z,16.60
2019-05-07T09:15:18.239Z,16.30
2019-05-07T09:18:07.082Z,14.80
2019-05-07T09:20:55.975Z,19.83
2019-05-07T09:23:44.831Z,19.13
2019-05-07T09:30:22.027Z,14.07
2019-05-07T09:33:32.014Z,17.07
2019-05-07T09:39:17.394Z,12.23
2019-05-07T09:42:06.388Z,19.17
2019-05-07T09:44:48.748Z,13.10
2019-05-07T09:47:37.580Z,13.17
2019-05-07T09:50:26.499Z,15.40
2019-05-07T09:53:15.413Z,14.50
2019-05-07T09:59:19.482Z,19.10
2019-05-07T10:02:08.395Z,13.00
2019-05-07T10:04:57.234Z,15.43
2019-05-07T10:07:46.209Z,19.30
2019-05-07T10:10:35.055Z,19.60
2019-05-07T10:13:23.678Z,16.43
2019-05-07T10:19:12.473Z,15.80
2019-05-07T10:22:02.331Z,15.20
2019-05-07T10:24:52.314Z,20.13
2019-05-07T10:27:41.881Z,18.13
2019-05-07T10:30:32.247Z,16.30
2019-05-07T10:33:22.970Z,15.73
2019-05-07T10:36:13.287Z,14.73
2019-05-07T10:39:02.562Z,12.43
2019-05-07T10:41:52.827Z,12.73
2019-05-07T10:44:36.196Z,13.70
2019-05-07T10:47:44.118Z,14.60
2019-05-07T10:53:32.747Z,14.93
2019-05-07T10:56:22.261Z,14.53
2019-05-07T10:59:12.384Z,11.77
2019-05-07T11:02:21.937Z,14.67
2019-05-07T11:05:12.758Z,12.77
2019-05-07T11:08:02.181Z,14.30
2019-05-07T11:10:52.213Z,13.10
2019-05-07T11:13:42.571Z,12.70
2019-05-07T11:19:32.464Z,12.40
2019-05-07T11:22:22.172Z,14.03
2019-05-07T11:25:12.390Z,12.50
2019-05-07T11:28:02.868Z,22.23
2019-05-07T11:30:51.860Z,10.80
2019-05-07T11:33:41.686Z,15.43
2019-05-07T11:36:32.028Z,15.17
2019-05-07T11:39:22.674Z,13.60
2019-05-07T11:42:31.543Z,14.47
2019-05-07T11:45:15.444Z,14.03
2019-05-07T11:48:04.472Z,11.67
2019-05-07T11:51:03.103Z,16.93
2019-05-07T11:56:55.544Z,13.83
2019-05-07T11:59:43.590Z,15.00
2019-05-07T12:02:32.483Z,12.77
2019-05-07T12:05:22.686Z,32.70
2019-05-07T12:08:13.255Z,12.37
2019-05-07T12:11:02.638Z,12.97
2019-05-07T12:13:52.367Z,13.67
2019-05-07T12:16:42.655Z,13.17
2019-05-07T12:19:33.174Z,10.83
2019-05-07T12:22:42.468Z,12.13
2019-05-07T12:25:32.088Z,12.93
2019-05-07T12:28:22.644Z,12.33
2019-05-07T12:31:33.502Z,14.73
2019-05-07T12:34:42.332Z,15.50
2019-05-07T12:37:32.128Z,11.00
2019-05-07T12:40:23.023Z,11.60
2019-05-07T12:43:11.915Z,10.57
2019-05-07T12:45:53.488Z,11.20
2019-05-07T12:48:42.495Z,10.67
2019-05-07T12:54:32.977Z,12.33
2019-05-07T12:57:21.962Z,13.83
2019-05-07T13:03:26.916Z,12.00
2019-05-07T13:06:15.797Z,12.13
2019-05-07T13:09:25.525Z,9.50
2019-05-07T13:12:14.360Z,9.53
2019-05-07T13:15:03.282Z,12.58
2019-05-07T13:17:52.136Z,12.37
2019-05-07T13:20:41.168Z,12.60
2019-05-07T13:23:31.808Z,9.53
2019-05-07T13:26:24.282Z,12.50
2019-05-07T13:29:12.820Z,13.37
2019-05-07T13:35:17.310Z,10.20
2019-05-07T13:38:06.006Z,13.00
2019-05-07T13:44:23.420Z,10.70
2019-05-07T13:47:24.709Z,11.87
2019-05-07T13:53:28.556Z,10.23
2019-05-07T13:56:17.521Z,11.27
2019-05-07T13:59:06.462Z,13.60
2019-05-07T14:02:15.663Z,10.30
2019-05-07T14:05:25.904Z,9.07
2019-05-07T14:08:14.842Z,13.13
2019-05-07T14:11:03.798Z,12.00
2019-05-07T14:13:52.724Z,11.20
2019-05-07T14:16:44.731Z,14.43
2019-05-07T14:19:32.747Z,9.97
2019-05-07T14:22:22.909Z,8.27
2019-05-07T14:25:32.661Z,10.00
2019-05-07T14:28:23.586Z,10.10
2019-05-07T14:31:12.374Z,7.63
2019-05-07T14:34:22.489Z,7.80
2019-05-07T14:40:22.299Z,8.30
2019-05-07T14:43:32.325Z,12.47
2019-05-07T14:46:13.652Z,6.90
2019-05-07T14:49:02.832Z,7.40
2019-05-07T14:51:54.095Z,7.70
2019-05-07T14:54:43.746Z,10.37
2019-05-07T14:57:32.686Z,13.00
2019-05-07T15:00:22.606Z,8.43
2019-05-07T15:03:12.587Z,8.60
2019-05-07T15:06:03.238Z,5.50
2019-05-07T15:08:52.292Z,8.87
2019-05-07T15:11:42.541Z,7.23
2019-05-07T15:14:31.967Z,6.20
2019-05-07T15:20:49.211Z,7.57
2019-05-07T15:29:44.003Z,6.07
2019-05-07T15:32:32.921Z,6.50
2019-05-07T15:35:21.750Z,6.10
2019-05-07T15:38:11.658Z,7.10
2019-05-07T15:41:02.208Z,6.07
2019-05-07T15:43:52.225Z,6.20
2019-05-07T15:46:35.746Z,4.87
2019-05-07T15:49:24.621Z,5.40
2019-05-07T15:52:32.771Z,8.37
2019-05-07T15:55:22.562Z,9.47
2019-05-07T15:58:12.203Z,8.13
2019-05-07T16:01:02.165Z,7.10
2019-05-07T16:03:54.855Z,8.90
2019-05-07T16:06:42.664Z,9.30
2019-05-07T16:12:28.982Z,8.07
2019-05-07T16:15:17.882Z,6.70
2019-05-07T16:18:25.763Z,5.77
2019-05-07T16:21:14.586Z,9.10
2019-05-07T16:24:04.056Z,6.90
2019-05-07T16:26:54.123Z,9.60
2019-05-07T16:29:42.990Z,11.37
2019-05-07T16:32:32.848Z,6.77
2019-05-07T16:35:22.846Z,8.33
2019-05-07T16:38:15.611Z,8.00
2019-05-07T16:41:03.669Z,8.77
2019-05-07T16:43:52.534Z,5.67
2019-05-07T16:46:34.528Z,6.47
2019-05-07T16:49:23.374Z,7.80
2019-05-07T16:52:12.220Z,9.17
2019-05-07T16:55:03.058Z,6.20
2019-05-07T16:57:51.582Z,4.30
2019-05-07T17:01:00.160Z,5.80
2019-05-07T17:04:09.068Z,5.37
2019-05-07T17:10:28.205Z,3.80
2019-05-07T17:13:17.059Z,3.60
2019-05-07T17:16:06.064Z,6.20
2019-05-07T17:18:54.957Z,7.13
2019-05-07T17:21:43.823Z,4.93
2019-05-07T17:24:33.016Z,4.63
2019-05-07T17:27:23.286Z,3.43
2019-05-07T17:30:12.184Z,4.80
2019-05-07T17:33:01.923Z,3.83
2019-05-07T17:35:51.914Z,6.73
2019-05-07T17:38:42.855Z,5.83
2019-05-07T17:41:33.165Z,5.50
2019-05-07T17:44:23.504Z,4.87
2019-05-07T17:47:05.092Z,6.50
2019-05-07T17:49:53.930Z,5.13
2019-05-07T17:52:42.796Z,4.37
2019-05-07T17:55:33.148Z,5.80
2019-05-07T17:58:22.229Z,5.33
2019-05-07T18:01:11.156Z,6.43
2019-05-07T18:04:00.027Z,5.27
2019-05-07T18:06:48.863Z,6.30
2019-05-07T18:09:37.863Z,5.93
2019-05-07T18:12:26.715Z,4.80
2019-05-07T18:15:15.715Z,4.97
2019-05-07T18:21:14.077Z,5.10
2019-05-07T18:24:13.048Z,5.37
2019-05-07T18:26:53.582Z,5.77
2019-05-07T18:29:42.797Z,3.50
2019-05-07T18:35:32.902Z,6.57
2019-05-07T18:38:22.355Z,3.27
2019-05-07T18:41:12.495Z,4.43
2019-05-07T18:44:09.998Z,8.00
2019-05-07T18:46:32.833Z,4.70
2019-05-07T18:49:21.721Z,6.33
2019-05-07T18:52:12.231Z,3.43
2019-05-07T18:55:02.781Z,5.27
2019-05-07T18:57:51.967Z,6.17
2019-05-07T19:03:36.882Z,8.30
2019-05-07T19:06:25.788Z,7.23
2019-05-07T19:09:14.754Z,5.50
2019-05-07T19:15:13.229Z,4.90
2019-05-07T19:18:02.794Z,5.00
2019-05-07T19:20:53.031Z,4.50
2019-05-07T19:23:43.345Z,6.83
2019-05-07T19:26:32.224Z,4.23
2019-05-07T19:29:23.354Z,3.70
2019-05-07T19:38:22.484Z,4.83
2019-05-07T19:41:12.344Z,4.27
2019-05-07T19:44:02.125Z,8.33
2019-05-07T19:46:43.670Z,3.90
2019-05-07T19:49:32.666Z,6.50
2019-05-07T19:52:23.128Z,6.03
2019-05-07T19:55:12.337Z,11.53
2019-05-07T19:58:20.260Z,5.97
2019-05-07T20:00:49.853Z,10.43
2019-05-07T20:03:38.773Z,4.78
2019-05-07T20:06:08.502Z,6.33
2019-05-07T20:09:09.053Z,6.17
2019-05-07T20:11:59.006Z,5.50
2019-05-07T20:14:47.872Z,10.18
2019-05-07T20:17:36.774Z,8.33
2019-05-07T20:20:25.629Z,5.97
2019-05-07T20:23:14.531Z,8.70
2019-05-07T20:26:04.024Z,6.35
2019-05-07T20:28:52.877Z,7.55
2019-05-07T20:31:42.437Z,8.18
2019-05-07T20:34:33.289Z,7.10
2019-05-07T20:37:23.026Z,6.12
2019-05-07T20:40:12.328Z,7.90
2019-05-07T20:43:02.532Z,5.58
2019-05-07T20:45:51.901Z,7.30
2019-05-07T20:48:34.855Z,5.40
2019-05-07T20:51:23.732Z,8.43
2019-05-07T20:57:42.752Z,4.35
2019-05-07T21:00:32.606Z,7.72
2019-05-07T21:03:23.758Z,4.37
2019-05-07T21:06:12.819Z,8.95
2019-05-07T21:09:01.648Z,6.70
2019-05-07T21:11:50.487Z,7.90
2019-05-07T21:14:41.704Z,6.42
2019-05-07T21:17:11.976Z,10.58
2019-05-07T21:20:01.280Z,7.67
2019-05-07T21:22:51.879Z,5.60
2019-05-07T21:25:22.672Z,5.35
2019-05-07T21:28:12.339Z,10.15
2019-05-07T21:31:02.901Z,4.92
2019-05-07T21:33:53.098Z,11.73
2019-05-07T21:36:43.171Z,4.78
2019-05-07T21:39:33.137Z,6.95
2019-05-07T21:42:23.170Z,4.55
2019-05-07T21:45:12.036Z,5.75
2019-05-07T21:47:54.476Z,5.72
2019-05-07T21:50:43.745Z,4.45
2019-05-07T21:53:53.698Z,6.65
2019-05-07T21:57:02.057Z,5.62
2019-05-07T22:05:57.359Z,5.22
2019-05-07T22:08:46.215Z,4.35
2019-05-07T22:11:35.092Z,4.83
2019-05-07T22:14:23.960Z,4.30
2019-05-07T22:17:12.914Z,6.15
2019-05-07T22:20:03.022Z,5.25
2019-05-07T22:22:52.324Z,5.92
2019-05-07T22:25:42.154Z,6.70
2019-05-07T22:32:02.559Z,5.97
2019-05-07T22:37:51.969Z,6.30
2019-05-07T22:40:43.308Z,6.65
2019-05-07T22:43:31.955Z,4.25
2019-05-07T22:46:22.473Z,5.03
2019-05-07T22:49:06.249Z,10.05
2019-05-07T22:51:55.124Z,5.33
2019-05-07T22:54:43.918Z,5.55
2019-05-07T22:57:52.589Z,4.15
2019-05-07T23:01:02.488Z,4.87
2019-05-07T23:03:53.971Z,3.58
2019-05-07T23:06:43.686Z,9.80
2019-05-07T23:09:33.137Z,6.42
2019-05-07T23:12:02.772Z,5.53
2019-05-07T23:14:53.591Z,6.55
2019-05-07T23:17:42.365Z,4.70
2019-05-07T23:20:32.014Z,5.92
2019-05-07T23:23:21.911Z,4.80
2019-05-07T23:26:12.215Z,7.70
2019-05-07T23:29:02.423Z,6.15
2019-05-07T23:31:53.000Z,9.93
2019-05-07T23:34:42.474Z,9.43
2019-05-07T23:37:33.116Z,4.78
2019-05-07T23:40:41.875Z,5.45
2019-05-07T23:43:31.790Z,6.05
2019-05-07T23:46:22.310Z,4.37
2019-05-07T23:49:03.925Z,5.92
2019-05-07T23:51:53.187Z,4.20
2019-05-07T23:54:43.310Z,4.80
2019-05-07T23:57:32.650Z,4.28
